Historyczne dane pomiarowe

Dodano dane terminowe – wersja testowa.

Dane z okresu 1951-2019

Wersja bazy: 1.34 [2019-03-16, lista zmian], aktualizacja planowana na 2019-04-15

Dane meteo z obszaru Polski uzyskane na podstawie danych udostępnionych przez Instytut Meteorologii i Gospodarki Wodnej – Państwowy Instytut Badawczy.

 

Wybierz Datę:    

       

TemperaturaWilgotnośćZachmurzenieWiatrCiśnienieWidzialnośćZjawiska
 Data    tng td wb rh cc ccl cl cm ch dir g1 g2 mslp ppp      
1994-08-10 00:00:00 16.8--- 15.5 16.092wxwx0wx--1011.9 997.2 0.0---wx
1994-08-10 01:00:00 15.5--- 14.7 15.095wxwx0wx--1012.0 997.2----wx
1994-08-10 02:00:00 14.3--- 13.6 13.996wxwx0wx--1011.7 996.9----wx
1994-08-10 03:00:00 14.1--- 13.6 13.897wxwx0wx--1011.3 996.5----wx
1994-08-10 04:00:00 13.9--- 13.6 13.798wxwxwx1wx--1011.5 996.6----wx
1994-08-10 05:00:00 14.7--- 14.4 14.598wxwxwxwx1wx--1011.3 996.5----wx
1994-08-10 06:00:00 17.4--- 15.8 16.490wxwxwx0wx--1011.0 996.3 0.0---wx
1994-08-10 07:00:00 20.2--- 17.0 18.182wxwxwx1wx--1010.8 996.3----wx
1994-08-10 08:00:00 23.0--- 15.1 18.061wxwxwx2wx--1010.7 996.3----wx
1994-08-10 09:00:00 24.6--- 15.4 18.756wxwxwx2wx--1010.6 996.3----wx
1994-08-10 10:00:00 26.1--- 14.2 18.648wxwxwxwx4wx--1010.1 995.9----wx
1994-08-10 11:00:00 27.0--- 13.8 18.744wxwxwxwx4wx--1009.4 995.2----wx
1994-08-10 12:00:00 28.1--- 13.3 18.840wxwxwxwx4wx--1008.9 994.8 0.0---wx
1994-08-10 13:00:00 28.2--- 13.4 18.940wxwxwxwx3wx--1008.4 994.3----wx
1994-08-10 14:00:00 27.5--- 12.4 18.239wxwxwxwxwx3wx--1008.0 993.9----wx
1994-08-10 15:00:00 28.3--- 13.1 18.839wxwxwxwx3wx--1007.2 993.1----wx
1994-08-10 16:00:00 28.1--- 13.3 18.840wxwxwx5wx--1006.7 992.6----wx
1994-08-10 17:00:00 27.8--- 13.5 18.841wxwxwx4wx--1006.5 992.4----wx
1994-08-10 18:00:00 25.3--- 13.8 18.149wxwxwxwx4wx--1006.5 992.3 0.0---wx
1994-08-10 19:00:00 24.1--- 13.6 17.652wxwxwxwx4wx--1006.8 992.5----wx
1994-08-10 20:00:00 22.9--- 13.7 17.256wxwxwxwx5wx--1006.9 992.6----wx
1994-08-10 21:00:00 21.5--- 13.9 16.862wxwxwx5wx--1006.9 992.5----wx
1994-08-10 22:00:00 21.9--- 12.9 16.456wxwxwx6wx--1006.4 992.0----wx
1994-08-10 23:00:00 20.9--- 13.2 16.261wxwxwx5wx--1006.0 991.6----wx

 

Źródłem pochodzenia danych jest Instytut Meteorologii i Gospodarki Wodnej – Państwowy Instytut Badawczy. Dane Instytutu Meteorologii i Gospodarki Wodnej – Państwowego Instytutu Badawczego zostały przetworzone.

Dane źródłowe można odnaleźć na stronie https://dane.imgw.pl